sensor_id;sensor_type;location;lat;lon;timestamp;pressure;altitude;pressure_sealevel;temperature;humidity
29379;BME280;16362;47.202;15.258;2022-07-29T00:02:15;96161.97;;;17.64;100.00
29379;BME280;16362;47.202;15.258;2022-07-29T00:04:42;96163.41;;;17.66;100.00
29379;BME280;16362;47.202;15.258;2022-07-29T00:07:09;96164.44;;;17.65;100.00
29379;BME280;16362;47.202;15.258;2022-07-29T00:09:38;96161.16;;;17.63;100.00
29379;BME280;16362;47.202;15.258;2022-07-29T00:12:18;96166.41;;;17.58;100.00
29379;BME280;16362;47.202;15.258;2022-07-29T00:14:54;96160.78;;;17.60;100.00
29379;BME280;16362;47.202;15.258;2022-07-29T00:17:23;96165.53;;;17.64;100.00
29379;BME280;16362;47.202;15.258;2022-07-29T00:19:50;96165.53;;;17.64;100.00
29379;BME280;16362;47.202;15.258;2022-07-29T00:22:18;96155.53;;;17.65;100.00
29379;BME280;16362;47.202;15.258;2022-07-29T00:24:48;96158.25;;;17.65;100.00
29379;BME280;16362;47.202;15.258;2022-07-29T00:27:16;96154.72;;;17.64;100.00
29379;BME280;16362;47.202;15.258;2022-07-29T00:29:43;96152.63;;;17.66;100.00
29379;BME280;16362;47.202;15.258;2022-07-29T00:32:09;96153.66;;;17.65;100.00
29379;BME280;16362;47.202;15.258;2022-07-29T00:34:36;96145.13;;;17.68;100.00
29379;BME280;16362;47.202;15.258;2022-07-29T00:37:21;96143.47;;;17.67;100.00
29379;BME280;16362;47.202;15.258;2022-07-29T00:39:48;96143.09;;;17.64;100.00
29379;BME280;16362;47.202;15.258;2022-07-29T00:42:15;96146.00;;;17.62;100.00
29379;BME280;16362;47.202;15.258;2022-07-29T00:44:43;96144.13;;;17.63;100.00
29379;BME280;16362;47.202;15.258;2022-07-29T00:47:10;96130.63;;;17.63;100.00
29379;BME280;16362;47.202;15.258;2022-07-29T00:49:39;96151.41;;;17.62;100.00
29379;BME280;16362;47.202;15.258;2022-07-29T00:52:07;96146.00;;;17.62;100.00
29379;BME280;16362;47.202;15.258;2022-07-29T00:54:35;96141.88;;;17.60;100.00
29379;BME280;16362;47.202;15.258;2022-07-29T00:57:10;96141.66;;;17.61;100.00
29379;BME280;16362;47.202;15.258;2022-07-29T00:59:37;96137.34;;;17.60;100.00
29379;BME280;16362;47.202;15.258;2022-07-29T01:02:03;96143.53;;;17.61;100.00
29379;BME280;16362;47.202;15.258;2022-07-29T01:04:31;96131.94;;;17.60;100.00
29379;BME280;16362;47.202;15.258;2022-07-29T01:07:00;96140.03;;;17.60;100.00
29379;BME280;16362;47.202;15.258;2022-07-29T01:09:28;96135.06;;;17.57;100.00
29379;BME280;16362;47.202;15.258;2022-07-29T01:12:32;96139.41;;;17.58;100.00
29379;BME280;16362;47.202;15.258;2022-07-29T01:15:01;96135.69;;;17.59;100.00
29379;BME280;16362;47.202;15.258;2022-07-29T01:20:46;96144.34;;;17.61;100.00
29379;BME280;16362;47.202;15.258;2022-07-29T01:29:00;96132.53;;;17.62;100.00
29379;BME280;16362;47.202;15.258;2022-07-29T01:31:59;96131.94;;;17.60;100.00
29379;BME280;16362;47.202;15.258;2022-07-29T01:34:39;96136.94;;;17.57;100.00
29379;BME280;16362;47.202;15.258;2022-07-29T01:39:49;96135.50;;;17.54;100.00
29379;BME280;16362;47.202;15.258;2022-07-29T01:42:43;96130.34;;;17.53;100.00
29379;BME280;16362;47.202;15.258;2022-07-29T01:48:05;96134.75;;;17.47;100.00
29379;BME280;16362;47.202;15.258;2022-07-29T01:50:35;96131.66;;;17.43;100.00
29379;BME280;16362;47.202;15.258;2022-07-29T01:53:09;96128.75;;;17.45;100.00
29379;BME280;16362;47.202;15.258;2022-07-29T01:55:40;96119.59;;;17.46;100.00
29379;BME280;16362;47.202;15.258;2022-07-29T01:58:10;96121.25;;;17.47;100.00
29379;BME280;16362;47.202;15.258;2022-07-29T02:00:39;96118.19;;;17.43;100.00
29379;BME280;16362;47.202;15.258;2022-07-29T02:03:11;96103.03;;;17.42;100.00
29379;BME280;16362;47.202;15.258;2022-07-29T02:05:41;96114.66;;;17.43;100.00
29379;BME280;16362;47.202;15.258;2022-07-29T02:08:09;96101.19;;;17.43;100.00
29379;BME280;16362;47.202;15.258;2022-07-29T02:10:40;96102.81;;;17.44;100.00
29379;BME280;16362;47.202;15.258;2022-07-29T02:13:07;96096.38;;;17.45;100.00
29379;BME280;16362;47.202;15.258;2022-07-29T02:15:36;96097.41;;;17.44;100.00
29379;BME280;16362;47.202;15.258;2022-07-29T02:18:23;96094.78;;;17.37;100.00
29379;BME280;16362;47.202;15.258;2022-07-29T02:20:53;96100.41;;;17.36;100.00
29379;BME280;16362;47.202;15.258;2022-07-29T02:23:22;96103.53;;;17.32;100.00
29379;BME280;16362;47.202;15.258;2022-07-29T02:25:55;96099.88;;;17.27;100.00
29379;BME280;16362;47.202;15.258;2022-07-29T02:28:24;96105.69;;;17.24;100.00
29379;BME280;16362;47.202;15.258;2022-07-29T02:30:53;96099.69;;;17.22;100.00
29379;BME280;16362;47.202;15.258;2022-07-29T02:33:22;96102.84;;;17.19;100.00
29379;BME280;16362;47.202;15.258;2022-07-29T02:35:50;96095.16;;;17.15;100.00
29379;BME280;16362;47.202;15.258;2022-07-29T02:38:20;96097.28;;;17.13;100.00
29379;BME280;16362;47.202;15.258;2022-07-29T02:41:12;96093.16;;;17.11;100.00
29379;BME280;16362;47.202;15.258;2022-07-29T02:43:41;96097.91;;;17.09;100.00
29379;BME280;16362;47.202;15.258;2022-07-29T02:46:14;96091.31;;;17.05;100.00
29379;BME280;16362;47.202;15.258;2022-07-29T02:52:08;96094.28;;;16.96;100.00
29379;BME280;16362;47.202;15.258;2022-07-29T02:55:14;96089.78;;;16.90;100.00
29379;BME280;16362;47.202;15.258;2022-07-29T03:00:53;96096.06;;;16.77;100.00
29379;BME280;16362;47.202;15.258;2022-07-29T03:03:20;96097.75;;;16.72;100.00
29379;BME280;16362;47.202;15.258;2022-07-29T03:05:48;96099.22;;;16.67;100.00
29379;BME280;16362;47.202;15.258;2022-07-29T03:08:15;96098.59;;;16.65;100.00
29379;BME280;16362;47.202;15.258;2022-07-29T03:10:44;96108.16;;;16.61;100.00
29379;BME280;16362;47.202;15.258;2022-07-29T03:13:13;96099.06;;;16.62;100.00
29379;BME280;16362;47.202;15.258;2022-07-29T03:15:43;96104.03;;;16.59;100.00
29379;BME280;16362;47.202;15.258;2022-07-29T03:18:10;96095.38;;;16.57;100.00
29379;BME280;16362;47.202;15.258;2022-07-29T03:20:38;96093.09;;;16.54;100.00
29379;BME280;16362;47.202;15.258;2022-07-29T03:23:06;96087.50;;;16.55;100.00
29379;BME280;16362;47.202;15.258;2022-07-29T03:25:32;96086.88;;;16.53;100.00
29379;BME280;16362;47.202;15.258;2022-07-29T03:28:00;96090.88;;;16.44;100.00
29379;BME280;16362;47.202;15.258;2022-07-29T03:30:26;96095.44;;;16.43;100.00
29379;BME280;16362;47.202;15.258;2022-07-29T03:32:54;96091.94;;;16.43;100.00
29379;BME280;16362;47.202;15.258;2022-07-29T03:35:23;96103.72;;;16.42;100.00
29379;BME280;16362;47.202;15.258;2022-07-29T03:37:50;96094.44;;;16.38;100.00
29379;BME280;16362;47.202;15.258;2022-07-29T03:40:22;96098.16;;;16.37;100.00
29379;BME280;16362;47.202;15.258;2022-07-29T03:42:51;96098.16;;;16.37;100.00
29379;BME280;16362;47.202;15.258;2022-07-29T03:45:20;96103.34;;;16.31;100.00
29379;BME280;16362;47.202;15.258;2022-07-29T03:48:01;96101.72;;;16.30;100.00
29379;BME280;16362;47.202;15.258;2022-07-29T03:50:29;96098.81;;;16.32;100.00
29379;BME280;16362;47.202;15.258;2022-07-29T03:52:57;96096.34;;;16.30;100.00
29379;BME280;16362;47.202;15.258;2022-07-29T03:55:25;96101.53;;;16.25;100.00
29379;BME280;16362;47.202;15.258;2022-07-29T03:57:54;96111.09;;;16.21;100.00
29379;BME280;16362;47.202;15.258;2022-07-29T04:00:24;96112.72;;;16.22;100.00
29379;BME280;16362;47.202;15.258;2022-07-29T04:02:51;96105.91;;;16.20;100.00
29379;BME280;16362;47.202;15.258;2022-07-29T04:05:18;96111.31;;;16.20;100.00
29379;BME280;16362;47.202;15.258;2022-07-29T04:07:47;96111.69;;;16.23;100.00
29379;BME280;16362;47.202;15.258;2022-07-29T04:10:15;96111.69;;;16.23;100.00
29379;BME280;16362;47.202;15.258;2022-07-29T04:12:56;96118.09;;;16.22;100.00
29379;BME280;16362;47.202;15.258;2022-07-29T04:15:22;96112.94;;;16.21;100.00
29379;BME280;16362;47.202;15.258;2022-07-29T04:17:49;96119.16;;;16.21;100.00
29379;BME280;16362;47.202;15.258;2022-07-29T04:20:16;96114.00;;;16.20;100.00
29379;BME280;16362;47.202;15.258;2022-07-29T04:22:42;96117.50;;;16.20;100.00
29379;BME280;16362;47.202;15.258;2022-07-29T04:25:09;96113.56;;;16.23;100.00
29379;BME280;16362;47.202;15.258;2022-07-29T04:27:36;96115.00;;;16.25;100.00
29379;BME280;16362;47.202;15.258;2022-07-29T04:30:23;96106.72;;;16.27;100.00
29379;BME280;16362;47.202;15.258;2022-07-29T04:32:49;96111.88;;;16.28;100.00
29379;BME280;16362;47.202;15.258;2022-07-29T04:35:16;96116.22;;;16.29;100.00
29379;BME280;16362;47.202;15.258;2022-07-29T04:37:43;96122.84;;;16.33;100.00
29379;BME280;16362;47.202;15.258;2022-07-29T04:40:10;96122.41;;;16.37;100.00
29379;BME280;16362;47.202;15.258;2022-07-29T04:42:37;96117.41;;;16.40;100.00
29379;BME280;16362;47.202;15.258;2022-07-29T04:45:12;96119.91;;;16.42;100.00
29379;BME280;16362;47.202;15.258;2022-07-29T04:47:39;96116.75;;;16.45;100.00
29379;BME280;16362;47.202;15.258;2022-07-29T04:50:07;96123.38;;;16.49;100.00
29379;BME280;16362;47.202;15.258;2022-07-29T04:52:34;96114.88;;;16.52;100.00
29379;BME280;16362;47.202;15.258;2022-07-29T04:55:03;96117.13;;;16.55;100.00
29379;BME280;16362;47.202;15.258;2022-07-29T04:57:30;96114.00;;;16.58;100.00
29379;BME280;16362;47.202;15.258;2022-07-29T04:59:56;96109.22;;;16.60;100.00
29379;BME280;16362;47.202;15.258;2022-07-29T05:02:23;96109.00;;;16.62;100.00
29379;BME280;16362;47.202;15.258;2022-07-29T05:04:50;96107.31;;;16.67;100.00
29379;BME280;16362;47.202;15.258;2022-07-29T05:07:17;96110.59;;;16.70;100.00
29379;BME280;16362;47.202;15.258;2022-07-29T05:09:43;96103.38;;;16.70;100.00
29379;BME280;16362;47.202;15.258;2022-07-29T05:12:10;96109.16;;;16.74;100.00
29379;BME280;16362;47.202;15.258;2022-07-29T05:14:37;96103.91;;;16.79;100.00
29379;BME280;16362;47.202;15.258;2022-07-29T05:17:04;96109.25;;;16.86;100.00
29379;BME280;16362;47.202;15.258;2022-07-29T05:19:31;96117.00;;;17.07;100.00
29379;BME280;16362;47.202;15.258;2022-07-29T05:21:58;96116.69;;;17.47;100.00
29379;BME280;16362;47.202;15.258;2022-07-29T05:24:26;96116.25;;;17.94;100.00
29379;BME280;16362;47.202;15.258;2022-07-29T05:26:53;96120.13;;;18.35;100.00
29379;BME280;16362;47.202;15.258;2022-07-29T05:29:19;96116.28;;;18.74;100.00
29379;BME280;16362;47.202;15.258;2022-07-29T05:32:06;96123.22;;;19.00;100.00
29379;BME280;16362;47.202;15.258;2022-07-29T05:34:33;96125.38;;;19.22;100.00
29379;BME280;16362;47.202;15.258;2022-07-29T05:37:00;96120.81;;;19.46;100.00
29379;BME280;16362;47.202;15.258;2022-07-29T05:39:27;96124.69;;;19.74;100.00
29379;BME280;16362;47.202;15.258;2022-07-29T05:42:13;96110.19;;;20.03;100.00
29379;BME280;16362;47.202;15.258;2022-07-29T05:44:40;96103.63;;;20.40;100.00
29379;BME280;16362;47.202;15.258;2022-07-29T05:47:07;96105.66;;;20.74;100.00
29379;BME280;16362;47.202;15.258;2022-07-29T05:49:34;96108.91;;;21.05;100.00
29379;BME280;16362;47.202;15.258;2022-07-29T05:52:00;96102.66;;;20.87;98.77
29379;BME280;16362;47.202;15.258;2022-07-29T05:54:28;96110.84;;;20.75;100.00
29379;BME280;16362;47.202;15.258;2022-07-29T05:56:54;96109.31;;;21.13;99.87
29379;BME280;16362;47.202;15.258;2022-07-29T05:59:22;96116.97;;;21.33;96.32
29379;BME280;16362;47.202;15.258;2022-07-29T06:01:55;96110.91;;;21.26;97.79
29379;BME280;16362;47.202;15.258;2022-07-29T06:04:23;96117.81;;;21.17;97.28
29379;BME280;16362;47.202;15.258;2022-07-29T06:06:50;96119.38;;;21.13;98.83
29379;BME280;16362;47.202;15.258;2022-07-29T06:09:18;96108.59;;;21.35;95.62
29379;BME280;16362;47.202;15.258;2022-07-29T06:11:44;96117.75;;;21.63;96.33
29379;BME280;16362;47.202;15.258;2022-07-29T06:14:11;96112.69;;;21.89;92.97
29379;BME280;16362;47.202;15.258;2022-07-29T06:16:38;96114.63;;;22.10;93.09
29379;BME280;16362;47.202;15.258;2022-07-29T06:19:05;96119.16;;;22.44;91.89
29379;BME280;16362;47.202;15.258;2022-07-29T06:21:32;96116.91;;;22.63;89.33
29379;BME280;16362;47.202;15.258;2022-07-29T06:24:04;96123.69;;;22.60;88.61
29379;BME280;16362;47.202;15.258;2022-07-29T06:26:31;96119.38;;;22.92;87.27
29379;BME280;16362;47.202;15.258;2022-07-29T06:29:05;96105.09;;;23.07;85.82
29379;BME280;16362;47.202;15.258;2022-07-29T06:31:32;96112.81;;;23.42;86.53
29379;BME280;16362;47.202;15.258;2022-07-29T06:33:59;96116.22;;;23.65;87.90
29379;BME280;16362;47.202;15.258;2022-07-29T06:36:25;96109.88;;;23.54;84.32
29379;BME280;16362;47.202;15.258;2022-07-29T06:38:53;96109.66;;;23.61;83.63
29379;BME280;16362;47.202;15.258;2022-07-29T06:41:21;96104.06;;;23.78;85.06
29379;BME280;16362;47.202;15.258;2022-07-29T06:43:49;96106.97;;;24.03;84.96
29379;BME280;16362;47.202;15.258;2022-07-29T06:46:21;96102.91;;;24.16;80.82
29379;BME280;16362;47.202;15.258;2022-07-29T06:48:49;96103.25;;;23.82;82.08
29379;BME280;16362;47.202;15.258;2022-07-29T06:51:17;96103.81;;;23.84;81.88
29379;BME280;16362;47.202;15.258;2022-07-29T06:53:50;96096.59;;;24.00;83.65
29379;BME280;16362;47.202;15.258;2022-07-29T06:56:29;96101.84;;;24.17;82.25
29379;BME280;16362;47.202;15.258;2022-07-29T06:58:57;96099.19;;;24.38;83.62
29379;BME280;16362;47.202;15.258;2022-07-29T07:01:24;96105.56;;;24.59;81.49
29379;BME280;16362;47.202;15.258;2022-07-29T07:03:51;96110.31;;;24.84;81.08
29379;BME280;16362;47.202;15.258;2022-07-29T07:06:17;96106.22;;;24.87;82.06
29379;BME280;16362;47.202;15.258;2022-07-29T07:08:44;96109.19;;;24.91;79.99
29379;BME280;16362;47.202;15.258;2022-07-29T07:11:11;96108.97;;;25.08;78.36
29379;BME280;16362;47.202;15.258;2022-07-29T07:13:38;96107.56;;;24.89;76.47
29379;BME280;16362;47.202;15.258;2022-07-29T07:16:04;96102.44;;;25.09;79.71
29379;BME280;16362;47.202;15.258;2022-07-29T07:18:31;96099.47;;;25.36;77.24
29379;BME280;16362;47.202;15.258;2022-07-29T07:20:58;96106.00;;;25.19;79.16
29379;BME280;16362;47.202;15.258;2022-07-29T07:23:25;96102.16;;;25.31;79.87
29379;BME280;16362;47.202;15.258;2022-07-29T07:25:52;96101.91;;;25.68;80.23
29379;BME280;16362;47.202;15.258;2022-07-29T07:28:19;96106.81;;;25.82;77.37
29379;BME280;16362;47.202;15.258;2022-07-29T07:30:51;96110.91;;;25.64;75.51
29379;BME280;16362;47.202;15.258;2022-07-29T07:33:18;96105.72;;;25.67;74.68
29379;BME280;16362;47.202;15.258;2022-07-29T07:35:45;96104.63;;;25.74;74.67
29379;BME280;16362;47.202;15.258;2022-07-29T07:38:12;96108.16;;;25.59;71.92
29379;BME280;16362;47.202;15.258;2022-07-29T07:40:39;96111.72;;;25.80;73.70
29379;BME280;16362;47.202;15.258;2022-07-29T07:43:05;96110.34;;;25.93;71.25
29379;BME280;16362;47.202;15.258;2022-07-29T07:45:32;96106.22;;;25.95;70.90
29379;BME280;16362;47.202;15.258;2022-07-29T07:47:59;96102.31;;;26.27;70.20
29379;BME280;16362;47.202;15.258;2022-07-29T07:50:26;96098.72;;;26.37;70.41
29379;BME280;16362;47.202;15.258;2022-07-29T07:52:54;96099.56;;;26.32;68.25
29379;BME280;16362;47.202;15.258;2022-07-29T07:55:25;96095.72;;;26.38;68.86
29379;BME280;16362;47.202;15.258;2022-07-29T07:57:53;96102.19;;;26.58;70.74
29379;BME280;16362;47.202;15.258;2022-07-29T08:00:21;96105.44;;;26.70;67.15
29379;BME280;16362;47.202;15.258;2022-07-29T08:02:49;96101.03;;;26.75;63.92
29379;BME280;16362;47.202;15.258;2022-07-29T08:05:17;96097.94;;;26.92;60.26
29379;BME280;16362;47.202;15.258;2022-07-29T08:07:45;96102.50;;;27.06;58.82
29379;BME280;16362;47.202;15.258;2022-07-29T08:10:14;96099.19;;;27.10;56.03
29379;BME280;16362;47.202;15.258;2022-07-29T08:12:43;96102.91;;;27.24;57.26
29379;BME280;16362;47.202;15.258;2022-07-29T08:15:09;96106.03;;;26.57;58.24
29379;BME280;16362;47.202;15.258;2022-07-29T08:17:36;96116.97;;;27.12;57.59
29379;BME280;16362;47.202;15.258;2022-07-29T08:20:03;96109.81;;;27.56;55.13
29379;BME280;16362;47.202;15.258;2022-07-29T08:22:30;96107.75;;;27.72;57.95
29379;BME280;16362;47.202;15.258;2022-07-29T08:24:57;96116.72;;;27.78;53.38
29379;BME280;16362;47.202;15.258;2022-07-29T08:27:24;96102.94;;;27.59;55.89
29379;BME280;16362;47.202;15.258;2022-07-29T08:30:09;96113.09;;;27.58;55.42
29379;BME280;16362;47.202;15.258;2022-07-29T08:32:37;96119.75;;;27.47;55.00
29379;BME280;16362;47.202;15.258;2022-07-29T08:35:21;96119.38;;;27.19;55.94
29379;BME280;16362;47.202;15.258;2022-07-29T08:37:49;96112.94;;;26.99;57.95
29379;BME280;16362;47.202;15.258;2022-07-29T08:40:16;96118.22;;;26.85;57.58
29379;BME280;16362;47.202;15.258;2022-07-29T08:42:42;96122.38;;;26.78;59.48
29379;BME280;16362;47.202;15.258;2022-07-29T08:45:10;96114.41;;;26.81;59.36
29379;BME280;16362;47.202;15.258;2022-07-29T08:47:38;96126.91;;;26.98;57.02
29379;BME280;16362;47.202;15.258;2022-07-29T08:50:09;96129.41;;;26.94;57.24
29379;BME280;16362;47.202;15.258;2022-07-29T08:52:38;96126.97;;;27.37;59.86
29379;BME280;16362;47.202;15.258;2022-07-29T08:55:07;96128.56;;;27.73;58.59
29379;BME280;16362;47.202;15.258;2022-07-29T08:57:34;96125.75;;;28.13;59.64
29379;BME280;16362;47.202;15.258;2022-07-29T09:00:06;96124.25;;;27.96;54.98
29379;BME280;16362;47.202;15.258;2022-07-29T09:02:41;96133.91;;;27.88;57.16
29379;BME280;16362;47.202;15.258;2022-07-29T09:05:13;96128.75;;;27.82;57.56
29379;BME280;16362;47.202;15.258;2022-07-29T09:07:40;96122.78;;;28.09;59.54
29379;BME280;16362;47.202;15.258;2022-07-29T09:10:09;96129.72;;;28.26;55.16
29379;BME280;16362;47.202;15.258;2022-07-29T09:12:36;96114.13;;;28.21;55.64
29379;BME280;16362;47.202;15.258;2022-07-29T09:15:05;96129.78;;;28.45;53.60
29379;BME280;16362;47.202;15.258;2022-07-29T09:17:45;96115.53;;;28.67;58.65
29379;BME280;16362;47.202;15.258;2022-07-29T09:20:18;96126.03;;;28.35;53.90
29379;BME280;16362;47.202;15.258;2022-07-29T09:22:46;96128.03;;;28.05;56.58
29379;BME280;16362;47.202;15.258;2022-07-29T09:25:36;96128.47;;;27.54;56.94
29379;BME280;16362;47.202;15.258;2022-07-29T09:28:11;96123.56;;;27.06;58.73
29379;BME280;16362;47.202;15.258;2022-07-29T09:30:58;96129.88;;;27.06;60.06
29379;BME280;16362;47.202;15.258;2022-07-29T09:33:31;96130.25;;;26.89;62.43
29379;BME280;16362;47.202;15.258;2022-07-29T09:36:08;96138.25;;;26.76;61.45
29379;BME280;16362;47.202;15.258;2022-07-29T09:38:35;96130.94;;;26.55;59.83
29379;BME280;16362;47.202;15.258;2022-07-29T09:41:04;96132.59;;;26.46;61.31
29379;BME280;16362;47.202;15.258;2022-07-29T09:43:32;96132.69;;;26.20;64.19
29379;BME280;16362;47.202;15.258;2022-07-29T09:46:36;96135.47;;;26.05;63.14
29379;BME280;16362;47.202;15.258;2022-07-29T09:51:34;96130.00;;;25.89;67.96
29379;BME280;16362;47.202;15.258;2022-07-29T09:54:23;96138.22;;;25.84;66.09
29379;BME280;16362;47.202;15.258;2022-07-29T09:56:51;96142.31;;;25.87;66.87
29379;BME280;16362;47.202;15.258;2022-07-29T09:59:19;96145.06;;;25.77;65.65
29379;BME280;16362;47.202;15.258;2022-07-29T10:01:52;96141.53;;;25.71;64.89
29379;BME280;16362;47.202;15.258;2022-07-29T10:04:20;96134.69;;;25.68;66.35
29379;BME280;16362;47.202;15.258;2022-07-29T10:06:57;96134.97;;;25.62;66.80
29379;BME280;16362;47.202;15.258;2022-07-29T10:09:31;96139.88;;;25.65;69.55
29379;BME280;16362;47.202;15.258;2022-07-29T10:14:35;96145.06;;;25.51;70.12
29379;BME280;16362;47.202;15.258;2022-07-29T10:17:03;96139.88;;;25.49;69.43
29379;BME280;16362;47.202;15.258;2022-07-29T10:19:31;96139.59;;;25.41;67.97
29379;BME280;16362;47.202;15.258;2022-07-29T10:22:00;96134.13;;;25.30;72.24
29379;BME280;16362;47.202;15.258;2022-07-29T10:24:29;96136.56;;;25.27;73.28
29379;BME280;16362;47.202;15.258;2022-07-29T10:26:57;96139.00;;;25.08;72.15
29379;BME280;16362;47.202;15.258;2022-07-29T10:29:25;96139.00;;;25.23;70.20
29379;BME280;16362;47.202;15.258;2022-07-29T10:38:29;96135.19;;;25.09;73.86
29379;BME280;16362;47.202;15.258;2022-07-29T10:43:21;96130.00;;;25.02;75.30
29379;BME280;16362;47.202;15.258;2022-07-29T10:45:56;96124.25;;;25.09;75.81
29379;BME280;16362;47.202;15.258;2022-07-29T10:48:23;96123.72;;;25.17;76.32
29379;BME280;16362;47.202;15.258;2022-07-29T10:51:01;96124.81;;;25.26;76.52
29379;BME280;16362;47.202;15.258;2022-07-29T10:53:49;96113.94;;;25.52;74.47
29379;BME280;16362;47.202;15.258;2022-07-29T10:56:27;96118.81;;;25.76;69.51
29379;BME280;16362;47.202;15.258;2022-07-29T11:02:01;96110.81;;;26.26;65.26
29379;BME280;16362;47.202;15.258;2022-07-29T11:07:15;96108.31;;;26.95;66.82
29379;BME280;16362;47.202;15.258;2022-07-29T11:09:43;96100.78;;;27.16;62.24
29379;BME280;16362;47.202;15.258;2022-07-29T11:12:47;96108.06;;;27.31;61.13
29379;BME280;16362;47.202;15.258;2022-07-29T11:15:16;96100.47;;;27.22;59.56
29379;BME280;16362;47.202;15.258;2022-07-29T11:23:23;96094.63;;;26.95;56.64
29379;BME280;16362;47.202;15.258;2022-07-29T11:34:29;96093.84;;;26.89;52.63
29379;BME280;16362;47.202;15.258;2022-07-29T11:48:01;96097.38;;;26.95;54.39
29379;BME280;16362;47.202;15.258;2022-07-29T11:50:48;96089.56;;;26.72;55.96
29379;BME280;16362;47.202;15.258;2022-07-29T11:53:15;96096.88;;;26.87;55.70
29379;BME280;16362;47.202;15.258;2022-07-29T11:55:42;96092.16;;;26.98;54.05
29379;BME280;16362;47.202;15.258;2022-07-29T11:58:21;96093.81;;;26.94;54.13
29379;BME280;16362;47.202;15.258;2022-07-29T12:00:51;96088.25;;;26.54;55.52
29379;BME280;16362;47.202;15.258;2022-07-29T12:03:38;96084.66;;;26.64;55.42
29379;BME280;16362;47.202;15.258;2022-07-29T12:06:14;96085.75;;;26.63;58.76
29379;BME280;16362;47.202;15.258;2022-07-29T12:09:08;96083.19;;;26.27;57.90
29379;BME280;16362;47.202;15.258;2022-07-29T12:11:40;96096.06;;;26.11;58.53
29379;BME280;16362;47.202;15.258;2022-07-29T12:14:31;96089.78;;;26.16;61.93
29379;BME280;16362;47.202;15.258;2022-07-29T12:17:00;96094.69;;;26.24;60.59
29379;BME280;16362;47.202;15.258;2022-07-29T12:19:27;96093.31;;;26.21;61.55
29379;BME280;16362;47.202;15.258;2022-07-29T12:21:55;96086.50;;;26.09;61.63
29379;BME280;16362;47.202;15.258;2022-07-29T12:24:26;96090.66;;;26.06;61.60
29379;BME280;16362;47.202;15.258;2022-07-29T12:26:55;96093.91;;;26.08;63.54
29379;BME280;16362;47.202;15.258;2022-07-29T12:29:23;96091.72;;;26.00;62.68
29379;BME280;16362;47.202;15.258;2022-07-29T12:32:02;96090.31;;;26.18;64.39
29379;BME280;16362;47.202;15.258;2022-07-29T12:34:30;96085.94;;;26.22;62.37
29379;BME280;16362;47.202;15.258;2022-07-29T12:36:57;96090.00;;;26.30;62.87
29379;BME280;16362;47.202;15.258;2022-07-29T12:39:24;96079.91;;;26.25;62.82
29379;BME280;16362;47.202;15.258;2022-07-29T12:41:54;96086.41;;;26.34;63.41
29379;BME280;16362;47.202;15.258;2022-07-29T12:44:49;96087.78;;;26.37;62.55
29379;BME280;16362;47.202;15.258;2022-07-29T12:47:17;96079.31;;;26.38;62.30
29379;BME280;16362;47.202;15.258;2022-07-29T12:49:45;96083.38;;;26.41;62.56
29379;BME280;16362;47.202;15.258;2022-07-29T12:52:41;96081.78;;;26.40;65.45
29379;BME280;16362;47.202;15.258;2022-07-29T12:55:07;96077.44;;;26.23;62.70
29379;BME280;16362;47.202;15.258;2022-07-29T12:57:48;96086.47;;;26.29;63.12
29379;BME280;16362;47.202;15.258;2022-07-29T13:00:15;96080.44;;;26.32;65.59
29379;BME280;16362;47.202;15.258;2022-07-29T13:02:43;96073.31;;;26.26;63.06
29379;BME280;16362;47.202;15.258;2022-07-29T13:05:10;96072.81;;;26.24;64.26
29379;BME280;16362;47.202;15.258;2022-07-29T13:07:39;96072.81;;;26.19;62.80
29379;BME280;16362;47.202;15.258;2022-07-29T13:10:23;96073.41;;;26.11;62.27
29379;BME280;16362;47.202;15.258;2022-07-29T13:13:10;96073.97;;;26.08;64.26
29379;BME280;16362;47.202;15.258;2022-07-29T13:15:38;96079.44;;;26.02;64.47
29379;BME280;16362;47.202;15.258;2022-07-29T13:18:34;96075.06;;;25.91;61.05
29379;BME280;16362;47.202;15.258;2022-07-29T13:21:15;96085.47;;;25.79;60.28
29379;BME280;16362;47.202;15.258;2022-07-29T13:23:44;96068.53;;;25.77;60.99
29379;BME280;16362;47.202;15.258;2022-07-29T13:26:11;96070.72;;;25.75;63.50
29379;BME280;16362;47.202;15.258;2022-07-29T13:28:38;96066.09;;;25.70;63.99
29379;BME280;16362;47.202;15.258;2022-07-29T13:31:09;96060.91;;;25.74;63.36
29379;BME280;16362;47.202;15.258;2022-07-29T13:33:36;96051.56;;;25.85;63.39
29379;BME280;16362;47.202;15.258;2022-07-29T13:36:03;96057.03;;;25.95;64.89
29379;BME280;16362;47.202;15.258;2022-07-29T13:38:30;96051.25;;;26.02;65.84
29379;BME280;16362;47.202;15.258;2022-07-29T13:40:57;96052.09;;;26.08;66.84
29379;BME280;16362;47.202;15.258;2022-07-29T13:43:24;96055.91;;;26.12;66.82
29379;BME280;16362;47.202;15.258;2022-07-29T13:45:51;96055.88;;;26.17;67.60
29379;BME280;16362;47.202;15.258;2022-07-29T13:48:18;96051.25;;;26.12;68.11
29379;BME280;16362;47.202;15.258;2022-07-29T13:50:45;96043.88;;;26.08;68.25
29379;BME280;16362;47.202;15.258;2022-07-29T13:53:13;96048.78;;;26.00;67.90
29379;BME280;16362;47.202;15.258;2022-07-29T13:55:44;96048.84;;;25.90;67.88
29379;BME280;16362;47.202;15.258;2022-07-29T13:58:11;96049.66;;;25.85;64.28
29379;BME280;16362;47.202;15.258;2022-07-29T14:00:38;96039.56;;;25.81;65.63
29379;BME280;16362;47.202;15.258;2022-07-29T14:03:05;96043.09;;;25.81;68.18
29379;BME280;16362;47.202;15.258;2022-07-29T14:05:32;96043.94;;;25.77;69.43
29379;BME280;16362;47.202;15.258;2022-07-29T14:07:59;96036.56;;;25.77;70.30
29379;BME280;16362;47.202;15.258;2022-07-29T14:10:26;96031.94;;;25.78;71.11